Time;durP1;ratioP1;P1;durP2;ratioP2;P2;SDS_P1;SDS_P2;PMS_P1;PMS_P2;Temp;Humidity;BMP_temperature;BMP_pressure;BME280_temperature;BME280_humidity;BME280_pressure;Samples;Min_cycle;Max_cycle;Signal;HPM_P1;HPM_P2
2021/12/22 00:00:40;;;;;;;40.03;21.75;;;;;;;;;;5006643;28;20093;-71
2021/12/22 00:03:08;;;;;;;42.35;21.80;;;;;;;;;;4992462;28;20483;-71
2021/12/22 00:05:43;;;;;;;37.90;21.42;;;;;;;;;;4992012;28;20145;-71
2021/12/22 00:08:12;;;;;;;42.67;21.98;;;;;;;;;;4991818;28;20054;-71
2021/12/22 00:10:42;;;;;;;39.42;21.70;;;;;;;;;;4991704;28;20092;-71
2021/12/22 00:13:09;;;;;;;44.13;23.83;;;;;;;;;;4992804;28;20050;-71
2021/12/22 00:15:35;;;;;;;37.03;20.52;;;;;;;;;;4993230;28;20054;-71
2021/12/22 00:18:02;;;;;;;42.40;23.60;;;;;;;;;;5008000;28;20469;-71
2021/12/22 00:20:29;;;;;;;49.08;30.33;;;;;;;;;;4993177;28;20383;-71
2021/12/22 00:22:58;;;;;;;50.30;30.55;;;;;;;;;;5007368;28;20061;-71
2021/12/22 00:25:26;;;;;;;45.72;25.60;;;;;;;;;;5007643;28;20493;-71
2021/12/22 00:27:53;;;;;;;43.90;24.38;;;;;;;;;;4992680;28;20057;-71
2021/12/22 00:30:20;;;;;;;41.50;22.58;;;;;;;;;;4992845;28;20050;-71
2021/12/22 00:32:51;;;;;;;43.65;24.10;;;;;;;;;;4992883;28;20050;-71
2021/12/22 00:35:24;;;;;;;42.05;23.60;;;;;;;;;;4992859;28;20046;-71
2021/12/22 00:37:50;;;;;;;38.05;22.27;;;;;;;;;;4992787;28;20128;-71
2021/12/22 00:40:17;;;;;;;40.40;23.58;;;;;;;;;;4992728;28;20104;-71
2021/12/22 00:42:43;;;;;;;45.55;23.20;;;;;;;;;;4992483;28;20458;-71
2021/12/22 00:45:11;;;;;;;41.15;22.27;;;;;;;;;;4992267;28;20106;-72
2021/12/22 00:47:37;;;;;;;40.40;21.40;;;;;;;;;;4992537;28;20043;-71
2021/12/22 00:50:05;;;;;;;39.28;21.63;;;;;;;;;;4992818;28;20046;-71
2021/12/22 00:52:32;;;;;;;40.33;20.95;;;;;;;;;;4992375;28;20050;-71
2021/12/22 00:54:58;;;;;;;36.55;21.70;;;;;;;;;;4992535;28;20568;-71
2021/12/22 00:57:25;;;;;;;40.42;23.50;;;;;;;;;;4992477;28;20104;-71
2021/12/22 00:59:51;;;;;;;41.13;22.02;;;;;;;;;;4992537;28;20108;-71
2021/12/22 01:02:19;;;;;;;38.30;22.20;;;;;;;;;;4992498;28;20096;-71
2021/12/22 01:04:45;;;;;;;;;;;;;;;;;;4992646;28;20047;-71
2021/12/22 01:07:12;;;;;;;38.13;20.50;;;;;;;;;;4994111;28;19922;-71
2021/12/22 01:09:38;;;;;;;40.13;20.63;;;;;;;;;;4996242;28;20081;-71
2021/12/22 01:12:06;;;;;;;38.22;21.90;;;;;;;;;;4996475;28;20054;-72
2021/12/22 01:14:33;;;;;;;38.35;21.33;;;;;;;;;;4996506;28;20046;-72
2021/12/22 01:17:02;;;;;;;40.70;21.27;;;;;;;;;;4994966;28;20462;-72
2021/12/22 01:19:58;;;;;;;41.90;23.05;;;;;;;;;;4996109;28;20287;-71
2021/12/22 01:22:30;;;;;;;36.20;21.33;;;;;;;;;;4996004;28;20455;-71
2021/12/22 01:25:02;;;;;;;36.05;21.15;;;;;;;;;;4996246;28;20540;-71
2021/12/22 01:27:33;;;;;;;35.40;20.20;;;;;;;;;;4996070;28;20042;-71
2021/12/22 01:30:00;;;;;;;42.17;21.40;;;;;;;;;;4995929;28;20056;-71
2021/12/22 01:32:27;;;;;;;39.60;21.38;;;;;;;;;;4996270;28;20042;-71
2021/12/22 01:34:53;;;;;;;43.17;23.23;;;;;;;;;;4995765;28;20109;-71
2021/12/22 01:37:20;;;;;;;43.17;23.15;;;;;;;;;;5010751;28;20505;-71
2021/12/22 01:39:46;;;;;;;41.47;22.30;;;;;;;;;;4996073;28;20443;-71
2021/12/22 01:42:13;;;;;;;39.55;21.50;;;;;;;;;;4995973;28;20442;-71
2021/12/22 01:45:11;;;;;;;36.42;20.35;;;;;;;;;;4995661;28;20054;-71
2021/12/22 01:50:43;;;;;;;38.92;20.60;;;;;;;;;;4995574;28;20042;-71
2021/12/22 01:53:29;;;;;;;35.30;20.25;;;;;;;;;;4995461;28;20050;-71
2021/12/22 01:56:05;;;;;;;40.17;20.77;;;;;;;;;;4995502;28;20401;-71
2021/12/22 01:58:33;;;;;;;41.00;20.40;;;;;;;;;;4995752;28;20050;-71
2021/12/22 02:01:00;;;;;;;40.30;21.33;;;;;;;;;;4995550;28;20379;-71
2021/12/22 02:03:27;;;;;;;36.15;20.25;;;;;;;;;;4995607;28;20046;-71
2021/12/22 02:05:53;;;;;;;37.03;20.92;;;;;;;;;;4995519;28;20391;-71
2021/12/22 02:08:20;;;;;;;38.85;20.48;;;;;;;;;;4995203;28;20120;-71
2021/12/22 02:10:48;;;;;;;33.72;20.17;;;;;;;;;;4995371;28;20046;-71
2021/12/22 02:13:19;;;;;;;38.05;20.90;;;;;;;;;;4995091;28;20105;-71
2021/12/22 02:15:47;;;;;;;34.53;20.27;;;;;;;;;;4995434;28;20104;-71
2021/12/22 02:18:18;;;;;;;36.08;20.23;;;;;;;;;;4994204;28;20085;-71
2021/12/22 02:20:45;;;;;;;34.17;19.08;;;;;;;;;;4995329;28;20104;-71
2021/12/22 02:23:12;;;;;;;36.60;19.85;;;;;;;;;;4995061;28;20077;-71
2021/12/22 02:25:47;;;;;;;38.13;20.40;;;;;;;;;;4993803;28;20046;-71
2021/12/22 02:28:20;;;;;;;33.13;18.40;;;;;;;;;;4995184;28;20054;-71
2021/12/22 02:30:47;;;;;;;36.05;19.80;;;;;;;;;;4995149;28;20388;-71
2021/12/22 02:35:55;;;;;;;39.92;19.83;;;;;;;;;;4994772;28;20469;-71
2021/12/22 02:38:21;;;;;;;35.50;18.70;;;;;;;;;;4994947;28;20113;-71
2021/12/22 02:40:50;;;;;;;36.03;18.70;;;;;;;;;;4994782;28;20096;-71
2021/12/22 02:43:21;;;;;;;33.03;18.45;;;;;;;;;;4994519;28;20050;-71
2021/12/22 02:45:48;;;;;;;35.92;18.50;;;;;;;;;;4994757;28;20082;-71
2021/12/22 02:48:15;;;;;;;29.77;15.98;;;;;;;;;;4994564;28;20078;-71
2021/12/22 02:50:41;;;;;;;34.80;16.58;;;;;;;;;;5009706;28;20108;-71
2021/12/22 02:53:14;;;;;;;35.08;17.92;;;;;;;;;;4994712;28;20097;-71
2021/12/22 02:58:16;;;;;;;37.83;18.95;;;;;;;;;;4994633;28;20050;-71
2021/12/22 03:00:50;;;;;;;31.42;17.30;;;;;;;;;;4994450;28;20105;-71
2021/12/22 03:03:33;;;;;;;29.80;17.13;;;;;;;;;;4994247;28;20530;-71
2021/12/22 03:06:04;;;;;;;30.85;17.10;;;;;;;;;;4994118;28;20105;-71
2021/12/22 03:08:30;;;;;;;29.85;17.75;;;;;;;;;;4994006;28;20467;-71
2021/12/22 03:10:57;;;;;;;35.58;19.58;;;;;;;;;;4994437;28;20537;-71
2021/12/22 03:13:23;;;;;;;34.10;18.25;;;;;;;;;;4994377;28;20446;-71
2021/12/22 03:15:50;;;;;;;32.03;17.85;;;;;;;;;;4994164;28;20097;-71
2021/12/22 03:18:17;;;;;;;33.70;18.50;;;;;;;;;;4993972;28;20047;-71
2021/12/22 03:20:46;;;;;;;31.33;18.10;;;;;;;;;;4993921;28;20108;-71
2021/12/22 03:23:12;;;;;;;31.98;17.35;;;;;;;;;;4994094;28;20113;-71
2021/12/22 03:25:39;;;;;;;31.88;17.52;;;;;;;;;;4993954;28;20120;-71
2021/12/22 03:28:06;;;;;;;27.92;16.95;;;;;;;;;;4994035;28;20124;-71
2021/12/22 03:30:32;;;;;;;33.92;17.08;;;;;;;;;;4993770;28;20050;-71
2021/12/22 03:32:59;;;;;;;34.70;17.52;;;;;;;;;;4993712;28;20042;-71
2021/12/22 03:35:25;;;;;;;31.13;16.45;;;;;;;;;;4993543;28;20046;-71
2021/12/22 03:37:56;;;;;;;32.08;16.73;;;;;;;;;;4993609;28;20522;-71
2021/12/22 03:40:23;;;;;;;28.90;16.20;;;;;;;;;;4993570;28;20450;-71
2021/12/22 03:42:50;;;;;;;31.67;15.50;;;;;;;;;;4993559;28;20494;-71
2021/12/22 03:45:16;;;;;;;31.75;16.38;;;;;;;;;;4993416;28;20097;-71
2021/12/22 03:47:43;;;;;;;28.63;14.95;;;;;;;;;;4993260;28;20093;-71
2021/12/22 03:50:10;;;;;;;32.67;16.77;;;;;;;;;;4993603;28;20105;-71
2021/12/22 03:52:37;;;;;;;30.98;15.52;;;;;;;;;;4993328;28;20498;-70
2021/12/22 03:55:05;;;;;;;29.50;14.90;;;;;;;;;;4993320;28;20509;-71
2021/12/22 03:57:32;;;;;;;28.20;15.57;;;;;;;;;;4993498;28;20062;-71
2021/12/22 03:59:59;;;;;;;25.20;14.32;;;;;;;;;;4993218;28;20113;-71
2021/12/22 04:02:27;;;;;;;27.13;14.88;;;;;;;;;;4991864;28;20053;-71
2021/12/22 04:04:54;;;;;;;28.00;14.23;;;;;;;;;;4993365;28;20051;-71
2021/12/22 04:07:20;;;;;;;25.92;14.20;;;;;;;;;;4992916;28;20097;-71
2021/12/22 04:09:47;;;;;;;25.85;15.02;;;;;;;;;;4993219;28;20137;-71
2021/12/22 04:12:13;;;;;;;29.95;14.63;;;;;;;;;;4992911;28;20092;-71
2021/12/22 04:14:40;;;;;;;26.48;16.05;;;;;;;;;;4993043;28;20120;-71
2021/12/22 04:17:06;;;;;;;25.30;14.57;;;;;;;;;;4993061;28;20046;-71
2021/12/22 04:19:33;;;;;;;29.83;14.25;;;;;;;;;;4992813;28;20465;-71
2021/12/22 04:21:59;;;;;;;29.67;14.98;;;;;;;;;;4992761;28;20499;-71
2021/12/22 04:24:26;;;;;;;25.85;14.73;;;;;;;;;;4991530;28;20077;-71
2021/12/22 04:26:52;;;;;;;24.52;14.40;;;;;;;;;;4992999;28;20054;-71
2021/12/22 04:29:19;;;;;;;28.73;15.35;;;;;;;;;;4992972;28;20050;-71
2021/12/22 04:31:46;;;;;;;26.15;13.90;;;;;;;;;;4992640;28;20487;-71
2021/12/22 04:34:12;;;;;;;25.15;14.30;;;;;;;;;;4992590;28;20859;-71
2021/12/22 04:36:39;;;;;;;23.55;14.63;;;;;;;;;;4992792;28;20545;-71
2021/12/22 04:39:08;;;;;;;25.77;14.13;;;;;;;;;;4991445;28;20470;-71
2021/12/22 04:41:34;;;;;;;25.45;15.07;;;;;;;;;;4992179;28;20046;-71
2021/12/22 04:44:01;;;;;;;26.48;14.57;;;;;;;;;;4992376;28;20054;-71
2021/12/22 04:46:28;;;;;;;29.08;14.77;;;;;;;;;;4992488;28;20045;-71
2021/12/22 04:48:55;;;;;;;27.00;14.48;;;;;;;;;;4992674;28;20105;-71
2021/12/22 04:51:23;;;;;;;22.88;13.45;;;;;;;;;;4992521;28;20051;-71
2021/12/22 04:53:56;;;;;;;25.10;14.15;;;;;;;;;;4992472;28;20124;-71
2021/12/22 04:56:22;;;;;;;27.08;14.63;;;;;;;;;;4992329;28;20101;-71
2021/12/22 04:58:49;;;;;;;25.45;13.80;;;;;;;;;;4992300;28;20469;-71
2021/12/22 05:01:15;;;;;;;26.25;13.52;;;;;;;;;;4992480;28;20050;-71
2021/12/22 05:03:42;;;;;;;23.33;14.27;;;;;;;;;;5007584;28;20058;-71
2021/12/22 05:06:09;;;;;;;25.98;14.35;;;;;;;;;;4992096;28;20055;-71
2021/12/22 05:08:35;;;;;;;29.00;16.17;;;;;;;;;;4992126;28;20058;-71
2021/12/22 05:11:02;;;;;;;28.70;15.02;;;;;;;;;;4992178;28;20054;-70
2021/12/22 05:13:29;;;;;;;27.33;15.57;;;;;;;;;;4992440;28;20054;-71
2021/12/22 05:15:56;;;;;;;28.20;15.98;;;;;;;;;;4992365;28;20058;-71
2021/12/22 05:18:35;;;;;;;25.60;14.98;;;;;;;;;;4992060;28;20058;-71
2021/12/22 05:21:02;;;;;;;29.58;16.52;;;;;;;;;;4992454;28;20550;-71
2021/12/22 05:23:28;;;;;;;28.77;15.18;;;;;;;;;;4992062;28;20047;-71
2021/12/22 05:25:54;;;;;;;25.95;14.80;;;;;;;;;;4991994;28;20470;-71
2021/12/22 05:28:21;;;;;;;28.77;15.45;;;;;;;;;;4992239;28;20458;-71
2021/12/22 05:30:47;;;;;;;30.85;16.02;;;;;;;;;;4992199;28;20050;-71
2021/12/22 05:33:14;;;;;;;25.83;14.95;;;;;;;;;;4992021;28;20494;-71
2021/12/22 05:35:41;;;;;;;29.33;15.70;;;;;;;;;;4991955;28;20050;-71
2021/12/22 05:38:07;;;;;;;22.58;14.40;;;;;;;;;;4992048;28;20054;-70
2021/12/22 05:40:34;;;;;;;27.13;14.27;;;;;;;;;;4991859;28;20077;-70
2021/12/22 05:43:00;;;;;;;25.83;14.50;;;;;;;;;;4991885;28;20495;-70
2021/12/22 05:45:27;;;;;;;27.70;15.95;;;;;;;;;;4991929;28;20050;-70
2021/12/22 05:47:54;;;;;;;31.30;16.02;;;;;;;;;;4991849;28;20494;-70
2021/12/22 05:50:21;;;;;;;29.05;14.88;;;;;;;;;;4991881;28;20079;-70
2021/12/22 05:52:48;;;;;;;24.23;14.82;;;;;;;;;;4991854;28;20454;-70
2021/12/22 05:55:15;;;;;;;27.58;14.27;;;;;;;;;;4995070;28;20081;-70
2021/12/22 05:57:42;;;;;;;24.80;13.88;;;;;;;;;;4995520;28;20506;-70
2021/12/22 06:00:08;;;;;;;29.88;15.25;;;;;;;;;;4995703;28;20054;-70
2021/12/22 06:02:35;;;;;;;26.17;14.18;;;;;;;;;;4995447;28;20100;-70
2021/12/22 06:05:02;;;;;;;25.15;13.68;;;;;;;;;;4995397;28;20054;-70
2021/12/22 06:07:28;;;;;;;24.67;15.05;;;;;;;;;;4994795;28;20050;-70
2021/12/22 06:09:55;;;;;;;27.52;14.60;;;;;;;;;;4995230;28;20050;-70
2021/12/22 06:12:21;;;;;;;23.35;14.60;;;;;;;;;;4995520;28;20474;-71
2021/12/22 06:14:48;;;;;;;21.67;14.27;;;;;;;;;;4995281;28;20450;-71
2021/12/22 06:17:14;;;;;;;25.83;14.45;;;;;;;;;;4995131;28;20557;-71
2021/12/22 06:19:41;;;;;;;25.52;15.15;;;;;;;;;;4995408;28;20058;-71
2021/12/22 06:22:07;;;;;;;26.65;14.00;;;;;;;;;;4995238;28;20054;-71
2021/12/22 06:24:34;;;;;;;24.42;15.32;;;;;;;;;;4995207;28;20058;-71
2021/12/22 06:27:00;;;;;;;30.60;15.07;;;;;;;;;;4994995;28;20109;-71
2021/12/22 06:29:27;;;;;;;27.63;15.45;;;;;;;;;;4995029;28;20042;-71
2021/12/22 06:31:53;;;;;;;31.15;15.52;;;;;;;;;;4993517;28;20054;-71
2021/12/22 06:34:20;;;;;;;28.52;15.88;;;;;;;;;;4994886;28;20502;-71
2021/12/22 06:36:46;;;;;;;25.55;15.35;;;;;;;;;;4994672;28;20093;-71
2021/12/22 06:39:13;;;;;;;30.02;15.18;;;;;;;;;;4995019;28;20050;-71
2021/12/22 06:41:40;;;;;;;25.92;14.23;;;;;;;;;;4994738;28;20050;-71
2021/12/22 06:44:06;;;;;;;25.95;15.02;;;;;;;;;;4994624;28;20046;-71
2021/12/22 06:46:34;;;;;;;21.67;12.98;;;;;;;;;;4994742;28;20048;-71
2021/12/22 06:49:00;;;;;;;25.08;14.43;;;;;;;;;;4994418;28;20046;-71
2021/12/22 06:51:27;;;;;;;28.48;14.70;;;;;;;;;;4994475;28;20561;-71
2021/12/22 06:53:53;;;;;;;28.92;15.07;;;;;;;;;;4994680;28;20100;-70
2021/12/22 06:56:20;;;;;;;24.05;14.35;;;;;;;;;;4994462;28;20105;-71
2021/12/22 06:58:46;;;;;;;23.42;13.52;;;;;;;;;;4994344;28;20487;-70
2021/12/22 07:01:17;;;;;;;26.15;15.05;;;;;;;;;;4993308;28;20379;-71
2021/12/22 07:03:47;;;;;;;29.80;14.27;;;;;;;;;;4994329;28;20138;-71
2021/12/22 07:06:14;;;;;;;26.60;15.43;;;;;;;;;;4993878;28;20446;-71
2021/12/22 07:08:41;;;;;;;29.77;17.15;;;;;;;;;;4994065;28;20348;-71
2021/12/22 07:11:07;;;;;;;30.35;17.20;;;;;;;;;;4994366;28;20104;-70
2021/12/22 07:13:34;;;;;;;31.85;17.95;;;;;;;;;;4994047;28;20100;-70
2021/12/22 07:16:00;;;;;;;32.65;17.38;;;;;;;;;;4994333;28;20046;-71
2021/12/22 07:18:27;;;;;;;32.22;19.25;;;;;;;;;;4993951;28;20046;-71
2021/12/22 07:20:53;;;;;;;31.45;18.08;;;;;;;;;;4994151;28;20209;-71
2021/12/22 07:23:20;;;;;;;30.38;18.00;;;;;;;;;;4993951;28;20050;-71
2021/12/22 07:25:46;;;;;;;29.73;17.80;;;;;;;;;;4993870;28;20050;-71
2021/12/22 07:28:13;;;;;;;31.63;17.35;;;;;;;;;;4994070;28;20046;-71
2021/12/22 07:30:39;;;;;;;30.42;18.70;;;;;;;;;;4993741;28;20070;-70
2021/12/22 07:33:06;;;;;;;33.08;19.52;;;;;;;;;;4993968;28;20089;-71
2021/12/22 07:35:45;;;;;;;35.10;19.70;;;;;;;;;;4993894;28;20051;-69
2021/12/22 07:38:22;;;;;;;33.28;19.42;;;;;;;;;;4993756;28;20423;-71
2021/12/22 07:40:49;;;;;;;34.23;18.93;;;;;;;;;;4993666;28;20108;-71
2021/12/22 07:43:16;;;;;;;33.58;18.98;;;;;;;;;;4993570;28;20043;-71
2021/12/22 07:45:42;;;;;;;34.10;19.65;;;;;;;;;;5008055;28;20050;-70
2021/12/22 07:48:09;;;;;;;31.80;19.55;;;;;;;;;;4993743;28;20410;-71
2021/12/22 07:50:35;;;;;;;31.35;18.65;;;;;;;;;;4993510;28;20046;-70
2021/12/22 07:53:02;;;;;;;27.85;18.50;;;;;;;;;;4993464;28;20469;-70
2021/12/22 07:55:29;;;;;;;34.65;19.88;;;;;;;;;;4993288;28;20054;-70
2021/12/22 07:57:55;;;;;;;31.67;18.75;;;;;;;;;;4989722;28;20194;-70
2021/12/22 08:00:22;;;;;;;40.60;23.90;;;;;;;;;;4977676;28;20553;-70
2021/12/22 08:02:48;;;;;;;37.95;24.38;;;;;;;;;;4973407;28;20082;-70
2021/12/22 08:05:35;;;;;;;34.58;22.35;;;;;;;;;;4973216;28;20086;-70
2021/12/22 08:08:01;;;;;;;39.72;24.80;;;;;;;;;;4976287;28;20121;-69
2021/12/22 08:10:28;;;;;;;36.33;23.23;;;;;;;;;;4990312;28;20442;-70
2021/12/22 08:12:54;;;;;;;29.45;19.90;;;;;;;;;;4992713;28;20046;-71
2021/12/22 08:15:21;;;;;;;32.28;19.35;;;;;;;;;;4982600;28;20042;-70
2021/12/22 08:17:48;;;;;;;28.90;18.42;;;;;;;;;;4989917;28;20498;-71
2021/12/22 08:20:14;;;;;;;31.77;18.55;;;;;;;;;;4988903;28;20046;-71
2021/12/22 08:22:41;;;;;;;32.70;18.70;;;;;;;;;;4987252;28;20467;-71
2021/12/22 08:25:07;;;;;;;30.75;18.85;;;;;;;;;;4972426;28;20058;-71
2021/12/22 08:27:34;;;;;;;28.75;17.75;;;;;;;;;;4982102;28;20105;-71
2021/12/22 08:30:01;;;;;;;32.03;18.40;;;;;;;;;;4987139;28;20047;-71
2021/12/22 08:32:27;;;;;;;30.05;19.10;;;;;;;;;;4974420;28;20109;-68
2021/12/22 08:34:56;;;;;;;31.92;18.45;;;;;;;;;;4990058;28;20434;-70
2021/12/22 08:40:10;;;;;;;31.83;18.05;;;;;;;;;;4992679;28;20046;-68
2021/12/22 08:42:37;;;;;;;29.42;16.98;;;;;;;;;;4992644;28;20112;-67
2021/12/22 08:45:04;;;;;;;30.95;17.15;;;;;;;;;;4992160;28;20074;-67
2021/12/22 08:47:31;;;;;;;30.83;17.67;;;;;;;;;;4975516;28;20047;-69
2021/12/22 08:49:57;;;;;;;32.20;17.73;;;;;;;;;;4990075;28;20100;-69
2021/12/22 08:52:24;;;;;;;29.45;16.52;;;;;;;;;;4992042;28;20050;-67
2021/12/22 08:54:50;;;;;;;24.60;16.17;;;;;;;;;;4990733;28;20046;-71
2021/12/22 08:57:17;;;;;;;27.67;17.30;;;;;;;;;;4987091;28;20042;-68
2021/12/22 08:59:44;;;;;;;29.40;16.80;;;;;;;;;;4990409;28;20057;-69
2021/12/22 09:02:10;;;;;;;25.80;16.77;;;;;;;;;;4984598;28;20101;-70
2021/12/22 09:04:37;;;;;;;26.02;16.27;;;;;;;;;;4972686;28;20061;-70
2021/12/22 09:07:04;;;;;;;29.33;18.52;;;;;;;;;;4984145;28;20073;-70
2021/12/22 09:09:31;;;;;;;31.77;17.80;;;;;;;;;;4992064;28;20105;-70
2021/12/22 09:11:57;;;;;;;29.83;17.15;;;;;;;;;;4978537;28;20315;-70
2021/12/22 09:14:24;;;;;;;30.20;17.30;;;;;;;;;;4992116;28;20050;-69
2021/12/22 09:16:51;;;;;;;29.65;17.60;;;;;;;;;;4988270;28;20050;-70
2021/12/22 09:19:18;;;;;;;27.85;16.70;;;;;;;;;;4989834;28;20051;-70
2021/12/22 09:21:45;;;;;;;27.92;15.80;;;;;;;;;;4988209;28;20050;-69
2021/12/22 09:24:11;;;;;;;26.23;16.38;;;;;;;;;;4972573;28;20110;-69
2021/12/22 09:26:38;;;;;;;23.77;15.13;;;;;;;;;;4971993;28;20051;-69
2021/12/22 09:29:05;;;;;;;25.77;15.35;;;;;;;;;;4975014;28;20043;-69
2021/12/22 09:31:32;;;;;;;25.38;14.57;;;;;;;;;;4986088;28;20050;-70
2021/12/22 09:33:58;;;;;;;22.10;13.82;;;;;;;;;;4978242;28;20047;-69
2021/12/22 09:36:25;;;;;;;23.20;12.45;;;;;;;;;;4975957;28;20451;-73
2021/12/22 09:38:51;;;;;;;19.17;12.95;;;;;;;;;;4993799;28;20073;-70
2021/12/22 09:41:18;;;;;;;22.77;13.27;;;;;;;;;;4995602;28;20050;-69
2021/12/22 09:43:44;;;;;;;18.83;10.77;;;;;;;;;;5010614;28;20493;-70
2021/12/22 09:46:15;;;;;;;18.63;11.13;;;;;;;;;;4995587;28;20050;-69
2021/12/22 09:49:08;;;;;;;20.65;11.63;;;;;;;;;;4995584;28;20047;-69
2021/12/22 09:54:20;;;;;;;15.95;10.25;;;;;;;;;;4995579;28;20097;-69
2021/12/22 09:56:47;;;;;;;20.00;10.60;;;;;;;;;;4990942;28;20058;-69
2021/12/22 09:59:14;;;;;;;18.02;10.68;;;;;;;;;;4992515;28;20054;-69
2021/12/22 10:01:40;;;;;;;19.20;9.90;;;;;;;;;;4995202;28;20450;-68
2021/12/22 10:04:09;;;;;;;22.23;9.57;;;;;;;;;;4992094;28;20553;-69
2021/12/22 10:06:35;;;;;;;17.48;8.73;;;;;;;;;;4995549;28;20050;-69
2021/12/22 10:09:03;;;;;;;17.35;9.60;;;;;;;;;;4994632;28;20050;-68
2021/12/22 10:11:33;;;;;;;16.33;10.57;;;;;;;;;;4995240;28;20050;-69
2021/12/22 10:13:59;;;;;;;14.30;9.05;;;;;;;;;;4991114;28;20097;-69
2021/12/22 10:16:27;;;;;;;15.77;9.10;;;;;;;;;;4983497;28;20043;-70
2021/12/22 10:18:54;;;;;;;;;;;;;;;;;;4995235;28;20081;-69
2021/12/22 10:21:23;;;;;;;17.25;7.82;;;;;;;;;;4995205;28;19921;-69
2021/12/22 10:23:51;;;;;;;14.75;9.23;;;;;;;;;;4995189;28;20054;-70
2021/12/22 10:26:19;;;;;;;14.85;8.35;;;;;;;;;;5009707;28;20498;-70
2021/12/22 10:28:45;;;;;;;14.75;7.95;;;;;;;;;;4994644;28;20101;-70
2021/12/22 10:31:12;;;;;;;17.20;8.35;;;;;;;;;;4994984;28;20101;-70
2021/12/22 10:33:41;;;;;;;13.67;8.23;;;;;;;;;;4992409;28;20446;-69
2021/12/22 10:36:15;;;;;;;13.05;7.40;;;;;;;;;;4983649;28;20093;-69
2021/12/22 10:38:47;;;;;;;14.18;7.57;;;;;;;;;;4980467;28;20506;-69
2021/12/22 10:41:14;;;;;;;11.90;7.40;;;;;;;;;;4994297;28;20462;-70
2021/12/22 10:43:42;;;;;;;17.08;7.75;;;;;;;;;;4994670;28;20058;-69
2021/12/22 10:46:15;;;;;;;17.02;8.07;;;;;;;;;;4991474;28;20191;-69
2021/12/22 10:51:30;;;;;;;19.30;7.80;;;;;;;;;;4994836;28;20104;-70
2021/12/22 10:53:57;;;;;;;17.40;8.55;;;;;;;;;;4994725;28;20049;-69
2021/12/22 10:56:31;;;;;;;15.18;8.38;;;;;;;;;;4994598;28;20054;-69
2021/12/22 10:58:59;;;;;;;12.82;7.88;;;;;;;;;;4994577;28;20057;-69
2021/12/22 11:01:25;;;;;;;12.60;7.18;;;;;;;;;;4994549;28;20100;-69
2021/12/22 11:04:01;;;;;;;14.60;7.97;;;;;;;;;;4994576;28;20080;-69
2021/12/22 11:06:30;;;;;;;16.70;8.38;;;;;;;;;;4994512;28;20061;-69
2021/12/22 11:08:58;;;;;;;14.57;7.65;;;;;;;;;;5008863;28;20051;-70
2021/12/22 11:11:32;;;;;;;13.23;7.40;;;;;;;;;;4994005;28;20557;-70
2021/12/22 11:14:02;;;;;;;10.60;6.18;;;;;;;;;;4994468;28;20450;-70
2021/12/22 11:16:28;;;;;;;12.35;7.30;;;;;;;;;;4993688;28;20106;-70
2021/12/22 11:19:06;;;;;;;11.68;7.05;;;;;;;;;;4994087;28;20084;-70
2021/12/22 11:21:35;;;;;;;11.20;6.47;;;;;;;;;;4994360;28;20105;-70
2021/12/22 11:24:01;;;;;;;;;;;;;;;;;;4994485;28;20113;-69
2021/12/22 11:26:28;;;;;;;10.15;6.55;;;;;;;;;;4994099;28;19932;-70
2021/12/22 11:28:55;;;;;;;13.73;6.65;;;;;;;;;;4993923;28;20096;-69
2021/12/22 11:31:22;;;;;;;11.43;6.40;;;;;;;;;;4994104;28;20450;-70
2021/12/22 11:33:48;;;;;;;12.45;6.50;;;;;;;;;;4994024;28;20046;-70
2021/12/22 11:36:15;;;;;;;10.73;6.13;;;;;;;;;;4983158;28;20104;-70
2021/12/22 11:38:42;;;;;;;10.70;6.25;;;;;;;;;;4990964;28;20050;-69
2021/12/22 11:41:15;;;;;;;10.95;6.45;;;;;;;;;;4991956;28;20058;-70
2021/12/22 11:43:42;;;;;;;8.27;5.63;;;;;;;;;;4973975;28;20051;-70
2021/12/22 11:46:09;;;;;;;10.32;5.40;;;;;;;;;;4987715;28;20462;-70
2021/12/22 11:48:37;;;;;;;10.65;5.55;;;;;;;;;;4985421;28;20085;-70
2021/12/22 11:51:21;;;;;;;7.10;4.90;;;;;;;;;;4992661;28;20116;-70
2021/12/22 11:54:08;;;;;;;10.60;6.13;;;;;;;;;;4976049;28;20047;-69
2021/12/22 11:56:35;;;;;;;;;;;;;;;;;;4990959;28;20501;-70
2021/12/22 11:59:01;;;;;;;8.65;4.93;;;;;;;;;;4993329;28;19921;-70
2021/12/22 12:01:28;;;;;;;7.47;5.28;;;;;;;;;;4981112;28;20158;-70
2021/12/22 12:04:10;;;;;;;10.57;5.60;;;;;;;;;;4980069;28;20058;-69
2021/12/22 12:06:50;;;;;;;9.57;5.78;;;;;;;;;;4995505;28;20566;-70
2021/12/22 12:09:20;;;;;;;10.15;4.95;;;;;;;;;;4987130;28;20454;-70
2021/12/22 12:23:20;;;;;;;11.32;5.03;;;;;;;;;;4992847;28;20069;-67
2021/12/22 12:25:47;;;;;;;10.45;5.38;;;;;;;;;;4984875;28;20545;-70
2021/12/22 12:28:15;;;;;;;13.13;5.43;;;;;;;;;;4986761;28;20457;-70
2021/12/22 12:30:48;;;;;;;8.20;5.22;;;;;;;;;;4992700;28;20498;-70
2021/12/22 12:33:28;;;;;;;9.70;5.55;;;;;;;;;;4992871;28;20105;-70
2021/12/22 12:36:00;;;;;;;12.00;5.63;;;;;;;;;;4992731;28;20109;-70
2021/12/22 12:38:44;;;;;;;10.77;5.43;;;;;;;;;;4992941;28;20054;-70
2021/12/22 12:41:15;;;;;;;12.20;5.55;;;;;;;;;;4992611;28;20046;-70
2021/12/22 12:43:45;;;;;;;11.75;5.55;;;;;;;;;;4988583;28;20046;-71
2021/12/22 12:46:21;;;;;;;11.63;6.55;;;;;;;;;;4983275;28;20065;-69
2021/12/22 12:48:49;;;;;;;12.27;5.63;;;;;;;;;;4992507;28;20108;-69
2021/12/22 12:51:16;;;;;;;12.82;6.38;;;;;;;;;;4992444;28;20054;-70
2021/12/22 12:53:45;;;;;;;10.40;5.43;;;;;;;;;;4992554;28;20046;-70
2021/12/22 12:56:12;;;;;;;10.23;5.72;;;;;;;;;;4992270;28;20487;-69
2021/12/22 12:58:52;;;;;;;15.13;6.32;;;;;;;;;;4992593;28;20052;-70
2021/12/22 13:01:39;;;;;;;12.30;6.20;;;;;;;;;;4992242;28;20050;-70
2021/12/22 13:04:35;;;;;;;10.97;6.10;;;;;;;;;;4991746;28;20126;-68
2021/12/22 13:07:02;;;;;;;10.18;6.03;;;;;;;;;;4987377;28;20109;-67
2021/12/22 13:09:30;;;;;;;11.90;6.60;;;;;;;;;;4992048;28;20054;-68
2021/12/22 13:12:10;;;;;;;12.15;6.53;;;;;;;;;;4992166;28;20490;-68
2021/12/22 13:17:24;;;;;;;15.93;6.90;;;;;;;;;;4989068;28;20039;-68
2021/12/22 13:19:57;;;;;;;15.10;6.55;;;;;;;;;;4992016;28;20565;-67
2021/12/22 13:22:25;;;;;;;13.45;6.78;;;;;;;;;;4992070;28;20252;-71
2021/12/22 13:24:51;;;;;;;;;;;;;;;;;;4992611;28;20077;-70
2021/12/22 13:27:31;;;;;;;11.18;6.88;;;;;;;;;;4981005;28;19973;-70
2021/12/22 13:30:08;;;;;;;10.18;6.35;;;;;;;;;;4985988;28;20047;-70
2021/12/22 13:32:35;;;;;;;15.65;6.88;;;;;;;;;;5000231;28;20514;-70
2021/12/22 13:35:02;;;;;;;12.40;6.50;;;;;;;;;;4971645;28;20121;-70
2021/12/22 13:37:30;;;;;;;10.20;6.43;;;;;;;;;;4983842;28;20054;-71
2021/12/22 13:39:57;;;;;;;;;;;;;;;;;;4974662;28;20054;-70
2021/12/22 13:42:23;;;;;;;12.45;7.10;;;;;;;;;;4987441;28;19932;-71
2021/12/22 13:44:49;;;;;;;10.75;6.90;;;;;;;;;;4991948;28;20442;-71
2021/12/22 13:47:16;;;;;;;10.50;6.82;;;;;;;;;;4991828;28;20097;-71
2021/12/22 13:49:42;;;;;;;13.20;7.00;;;;;;;;;;4991660;28;20511;-71
2021/12/22 13:52:09;;;;;;;10.45;7.45;;;;;;;;;;5007130;28;20058;-71
2021/12/22 13:54:35;;;;;;;11.00;6.85;;;;;;;;;;4992115;28;20047;-71
2021/12/22 13:57:03;;;;;;;13.68;7.45;;;;;;;;;;4985155;28;20047;-71
2021/12/22 13:59:31;;;;;;;9.70;6.78;;;;;;;;;;4991696;28;20086;-72
2021/12/22 14:01:58;;;;;;;11.85;7.65;;;;;;;;;;4992008;28;20050;-72
2021/12/22 14:04:31;;;;;;;9.95;7.50;;;;;;;;;;4991864;28;20046;-71
2021/12/22 14:07:00;;;;;;;14.82;9.02;;;;;;;;;;4989423;28;20125;-72
2021/12/22 14:09:30;;;;;;;11.68;8.45;;;;;;;;;;4978872;28;20105;-72
2021/12/22 14:12:13;;;;;;;9.55;7.45;;;;;;;;;;4991683;28;20532;-72
2021/12/22 14:14:43;;;;;;;12.20;7.68;;;;;;;;;;4992687;28;20042;-72
2021/12/22 14:17:14;;;;;;;14.25;8.38;;;;;;;;;;5010477;28;20051;-71
2021/12/22 14:19:40;;;;;;;14.75;8.55;;;;;;;;;;4995485;28;20051;-72
2021/12/22 14:22:12;;;;;;;14.18;7.80;;;;;;;;;;4995044;28;20054;-71
2021/12/22 14:24:47;;;;;;;15.35;9.27;;;;;;;;;;4994912;28;20050;-71
2021/12/22 14:27:15;;;;;;;15.02;8.82;;;;;;;;;;5009912;28;20458;-71
2021/12/22 14:29:47;;;;;;;14.40;8.98;;;;;;;;;;4995055;28;20128;-70
2021/12/22 14:32:21;;;;;;;15.85;9.82;;;;;;;;;;4987976;28;20048;-71
2021/12/22 14:35:17;;;;;;;18.27;10.05;;;;;;;;;;4981577;28;20406;-71
2021/12/22 14:37:44;;;;;;;18.08;10.82;;;;;;;;;;4968477;28;20459;-71
2021/12/22 14:40:12;;;;;;;15.15;10.75;;;;;;;;;;4994817;28;20491;-72
2021/12/22 14:42:38;;;;;;;15.95;10.30;;;;;;;;;;4993782;28;20046;-71
2021/12/22 14:45:19;;;;;;;15.52;10.32;;;;;;;;;;4994376;28;20430;-71
2021/12/22 14:47:59;;;;;;;20.80;10.35;;;;;;;;;;4993848;28;20471;-71
2021/12/22 14:50:26;;;;;;;19.95;10.52;;;;;;;;;;5009493;28;20047;-72
2021/12/22 14:52:59;;;;;;;21.00;11.07;;;;;;;;;;4994706;28;20454;-71
2021/12/22 14:55:39;;;;;;;21.67;11.20;;;;;;;;;;4994686;28;20054;-71
2021/12/22 14:58:06;;;;;;;18.80;10.57;;;;;;;;;;4978292;28;20054;-71
2021/12/22 15:00:33;;;;;;;20.50;10.75;;;;;;;;;;4974391;28;20047;-71
2021/12/22 15:03:00;;;;;;;19.02;11.15;;;;;;;;;;4978856;28;20104;-71